Terminal Aerodrome Forecast
Issued by NWS

Current Version | Previous Version | Text Only | Print | Product List | Glossary On
Versions: 1 2 3 4 5 6 7 8 9 10 11 12 13 14 15 16
000
FTUS44 KTSA 251725
TAFMLC
TAF
KMLC 251725Z 2518/2618 18013G27KT P6SM SCT020 SCT250
     FM260100 18011G18KT P6SM BKN030 BKN250 PROB30 2609/2612 4SM
      -TSRA BR BKN020CB
     FM261200 31009KT 4SM -SHRA OVC015=

USA.gov is the U.S. government's official web portal to all federal, state and local government web resources and services.